createdAt,value
2024-05-09T00:01:59.922Z,6.31
2024-05-09T00:07:05.148Z,6.21
2024-05-09T00:12:09.923Z,6.11
2024-05-09T00:17:14.629Z,6.01
2024-05-09T00:22:19.287Z,5.92
2024-05-09T00:27:23.915Z,5.83
2024-05-09T00:32:28.720Z,5.74
2024-05-09T00:37:33.366Z,5.65
2024-05-09T00:42:39.772Z,5.56
2024-05-09T00:47:46.477Z,5.48
2024-05-09T00:52:51.613Z,5.40
2024-05-09T00:57:56.428Z,5.29
2024-05-09T01:03:01.281Z,5.21
2024-05-09T01:08:07.808Z,5.14
2024-05-09T01:13:12.674Z,5.06
2024-05-09T01:18:17.954Z,4.99
2024-05-09T01:23:22.658Z,4.91
2024-05-09T01:28:27.212Z,4.83
2024-05-09T01:33:32.162Z,4.76
2024-05-09T01:38:37.152Z,4.67
2024-05-09T01:43:41.730Z,4.61
2024-05-09T01:48:46.963Z,4.56
2024-05-09T01:53:52.445Z,4.50
2024-05-09T01:58:56.978Z,4.44
2024-05-09T02:04:02.070Z,4.35
2024-05-09T02:09:06.811Z,4.32
2024-05-09T02:14:11.464Z,4.28
2024-05-09T02:19:16.161Z,4.25
2024-05-09T02:24:20.791Z,4.27
2024-05-09T02:29:25.396Z,4.23
2024-05-09T02:34:30.322Z,4.22
2024-05-09T02:39:35.451Z,4.18
2024-05-09T02:44:39.856Z,4.13
2024-05-09T02:49:44.340Z,4.07
2024-05-09T02:54:48.695Z,4.00
2024-05-09T02:59:53.200Z,3.94
2024-05-09T03:04:58.158Z,3.87
2024-05-09T03:10:03.500Z,3.82
2024-05-09T03:15:09.810Z,3.73
2024-05-09T03:20:20.588Z,3.68
2024-05-09T03:25:29.045Z,3.65
2024-05-09T03:30:40.340Z,3.63
2024-05-09T03:35:48.039Z,3.63
2024-05-09T03:40:53.383Z,3.64
2024-05-09T03:45:58.313Z,3.68
2024-05-09T03:51:03.061Z,3.68
2024-05-09T03:56:10.215Z,3.75
2024-05-09T04:01:15.043Z,3.84
2024-05-09T04:06:23.688Z,3.93
2024-05-09T04:11:28.432Z,4.02
2024-05-09T04:16:33.260Z,4.12
2024-05-09T04:21:38.061Z,4.25
2024-05-09T04:26:41.718Z,4.43
2024-05-09T04:31:46.399Z,4.63
2024-05-09T04:36:51.230Z,4.86
2024-05-09T04:41:56.736Z,5.13
2024-05-09T04:47:02.192Z,5.43
2024-05-09T04:52:08.312Z,5.74
2024-05-09T04:57:13.622Z,6.07
2024-05-09T05:02:18.975Z,6.40
2024-05-09T05:07:25.207Z,6.75
2024-05-09T05:12:50.221Z,7.08
2024-05-09T05:17:56.709Z,7.45
2024-05-09T05:23:02.379Z,7.79
2024-05-09T05:28:08.673Z,8.14
2024-05-09T05:33:15.697Z,8.52
2024-05-09T05:38:25.038Z,8.88
2024-05-09T05:43:32.848Z,9.21
2024-05-09T05:48:38.227Z,9.48
2024-05-09T05:53:44.413Z,9.70
2024-05-09T05:58:49.876Z,9.89
2024-05-09T06:03:55.524Z,10.09
2024-05-09T06:09:01.155Z,10.20
2024-05-09T06:14:06.667Z,10.40
2024-05-09T06:19:12.115Z,10.51
2024-05-09T06:24:17.777Z,10.71
2024-05-09T06:29:23.422Z,10.88
2024-05-09T06:34:29.351Z,11.09
2024-05-09T06:39:34.720Z,11.31
2024-05-09T06:44:40.077Z,11.50
2024-05-09T06:49:45.794Z,11.64
2024-05-09T06:54:51.195Z,11.72
2024-05-09T06:59:59.313Z,11.80
2024-05-09T07:05:05.413Z,11.85
2024-05-09T07:10:17.781Z,11.90
2024-05-09T07:15:27.768Z,12.02
2024-05-09T07:20:35.140Z,12.20
2024-05-09T07:25:41.932Z,12.33
2024-05-09T07:30:54.899Z,12.52
2024-05-09T07:36:00.202Z,12.66
2024-05-09T07:41:06.377Z,12.80
2024-05-09T07:47:14.103Z,12.98
2024-05-09T07:56:49.220Z,13.25
2024-05-09T08:01:54.826Z,13.36
2024-05-09T08:07:01.123Z,13.46
2024-05-09T08:12:08.882Z,13.56
2024-05-09T08:17:16.003Z,13.68
2024-05-09T08:22:21.680Z,13.77
2024-05-09T08:27:27.558Z,13.85
2024-05-09T08:32:34.650Z,13.90
2024-05-09T08:37:40.789Z,13.96
2024-05-09T08:42:50.710Z,14.01
2024-05-09T08:47:57.446Z,14.09
2024-05-09T08:53:03.847Z,14.19
2024-05-09T08:58:11.016Z,14.29
2024-05-09T09:03:19.204Z,14.39
2024-05-09T09:08:26.851Z,14.50
2024-05-09T09:13:32.672Z,14.61
2024-05-09T09:18:38.431Z,14.69
2024-05-09T09:23:45.421Z,14.77
2024-05-09T09:28:52.079Z,14.92
2024-05-09T09:33:56.881Z,15.02
2024-05-09T09:39:02.623Z,15.13
2024-05-09T09:44:10.761Z,15.22
2024-05-09T09:49:17.358Z,15.34
2024-05-09T09:54:23.322Z,15.44
2024-05-09T09:59:30.446Z,15.54
2024-05-09T10:04:36.929Z,15.64
2024-05-09T10:09:43.040Z,15.74
2024-05-09T10:14:49.398Z,15.85
2024-05-09T10:20:14.452Z,15.98
2024-05-09T10:25:27.265Z,16.11
2024-05-09T10:30:36.195Z,16.25
2024-05-09T10:35:53.047Z,16.39
2024-05-09T10:41:00.324Z,16.53
2024-05-09T10:46:07.436Z,16.67
2024-05-09T10:51:13.769Z,16.80
2024-05-09T10:56:19.926Z,16.93
2024-05-09T11:01:25.616Z,17.04
2024-05-09T11:06:31.673Z,17.19
2024-05-09T11:11:38.130Z,17.33
2024-05-09T11:16:44.406Z,17.49
2024-05-09T11:21:53.720Z,17.65
2024-05-09T11:27:01.108Z,17.83
2024-05-09T11:32:11.134Z,18.00
2024-05-09T11:37:16.844Z,18.20
2024-05-09T11:42:22.288Z,18.40
2024-05-09T11:47:28.693Z,18.51
2024-05-09T11:52:34.287Z,18.59
2024-05-09T11:57:39.853Z,18.65
2024-05-09T12:02:45.662Z,18.69
2024-05-09T12:07:51.782Z,18.75
2024-05-09T12:12:57.855Z,18.81
2024-05-09T12:18:04.374Z,18.89
2024-05-09T12:23:11.146Z,19.02
2024-05-09T12:28:18.122Z,19.15
2024-05-09T12:33:24.859Z,19.36
2024-05-09T12:38:31.187Z,19.52
2024-05-09T12:43:37.390Z,19.77
2024-05-09T12:48:43.805Z,20.03
2024-05-09T12:53:49.140Z,20.25
2024-05-09T12:58:54.571Z,20.43
2024-05-09T13:04:00.790Z,20.56
2024-05-09T13:09:06.420Z,20.62
2024-05-09T13:14:11.733Z,20.66
2024-05-09T13:19:17.668Z,20.68
2024-05-09T13:24:23.014Z,20.70
2024-05-09T13:29:28.342Z,20.75
2024-05-09T13:34:34.037Z,20.79
2024-05-09T13:39:39.454Z,20.83
2024-05-09T13:44:44.110Z,20.82
2024-05-09T13:49:49.292Z,20.77
2024-05-09T13:54:54.724Z,20.70
2024-05-09T14:00:00.361Z,20.68
2024-05-09T14:05:06.819Z,20.69
2024-05-09T14:10:22.479Z,20.70
2024-05-09T14:15:32.267Z,20.72
2024-05-09T14:20:38.675Z,20.69
2024-05-09T14:25:45.528Z,20.65
2024-05-09T14:30:52.219Z,20.57
2024-05-09T14:35:58.191Z,20.49
2024-05-09T14:41:03.698Z,20.42
2024-05-09T14:46:09.255Z,20.31
2024-05-09T14:51:16.031Z,20.20
2024-05-09T14:56:21.409Z,20.11
2024-05-09T15:01:27.769Z,20.07
2024-05-09T15:06:33.704Z,20.07
2024-05-09T15:11:39.813Z,20.07
2024-05-09T15:16:45.600Z,20.08
2024-05-09T15:21:51.248Z,20.09
2024-05-09T15:26:56.726Z,20.11
2024-05-09T15:32:02.129Z,20.08
2024-05-09T15:37:08.553Z,20.06
2024-05-09T15:42:14.065Z,20.01
2024-05-09T15:47:19.962Z,19.96
2024-05-09T15:52:25.268Z,19.89
2024-05-09T15:57:30.910Z,19.79
2024-05-09T16:02:36.531Z,19.72
2024-05-09T16:07:42.778Z,19.64
2024-05-09T16:12:48.807Z,19.57
2024-05-09T16:17:55.625Z,19.50
2024-05-09T16:23:01.824Z,19.45
2024-05-09T16:28:10.505Z,19.37
2024-05-09T16:33:18.973Z,19.27
2024-05-09T16:38:25.468Z,19.17
2024-05-09T16:43:30.903Z,19.07
2024-05-09T16:48:38.639Z,19.01
2024-05-09T16:53:44.064Z,18.94
2024-05-09T16:58:49.478Z,18.83
2024-05-09T17:03:55.289Z,18.77
2024-05-09T17:09:08.392Z,18.70
2024-05-09T17:14:17.183Z,18.65
2024-05-09T17:19:22.682Z,18.60
2024-05-09T17:24:28.392Z,18.53
2024-05-09T17:29:33.843Z,18.47
2024-05-09T17:34:39.352Z,18.43
2024-05-09T17:39:45.104Z,18.39
2024-05-09T17:44:50.576Z,18.37
2024-05-09T17:49:55.927Z,18.30
2024-05-09T17:55:01.560Z,18.22
2024-05-09T18:00:11.725Z,18.12
2024-05-09T18:05:19.803Z,17.98
2024-05-09T18:10:32.838Z,17.77
2024-05-09T18:15:44.571Z,17.59
2024-05-09T18:20:50.114Z,17.37
2024-05-09T18:25:56.691Z,17.12
2024-05-09T18:31:02.050Z,16.85
2024-05-09T18:36:10.024Z,16.58
2024-05-09T18:41:15.618Z,16.29
2024-05-09T18:46:20.336Z,16.02
2024-05-09T18:51:25.813Z,15.74
2024-05-09T18:56:31.126Z,15.45
2024-05-09T19:01:40.734Z,15.18
2024-05-09T19:06:46.351Z,14.91
2024-05-09T19:11:51.696Z,14.64
2024-05-09T19:16:57.302Z,14.41
2024-05-09T19:22:06.184Z,14.15
2024-05-09T19:27:12.782Z,13.92
2024-05-09T19:32:18.241Z,13.74
2024-05-09T19:37:22.908Z,13.53
2024-05-09T19:42:29.578Z,13.31
2024-05-09T19:47:35.634Z,13.09
2024-05-09T19:52:40.853Z,12.89
2024-05-09T19:57:46.318Z,12.69
2024-05-09T20:02:51.739Z,12.45
2024-05-09T20:07:58.080Z,12.31
2024-05-09T20:13:04.101Z,12.14
2024-05-09T20:18:10.127Z,11.97
2024-05-09T20:23:15.590Z,11.81
2024-05-09T20:28:21.468Z,11.67
2024-05-09T20:33:27.156Z,11.51
2024-05-09T20:38:33.128Z,11.38
2024-05-09T20:43:38.459Z,11.28
2024-05-09T20:48:44.082Z,11.16
2024-05-09T20:53:50.045Z,11.10
2024-05-09T20:58:55.323Z,10.98
2024-05-09T21:04:01.218Z,10.86
2024-05-09T21:09:06.015Z,10.72
2024-05-09T21:14:11.306Z,10.61
2024-05-09T21:19:17.034Z,10.49
2024-05-09T21:24:22.693Z,10.36
2024-05-09T21:29:28.583Z,10.27
2024-05-09T21:34:34.259Z,10.15
2024-05-09T21:39:40.282Z,10.04
2024-05-09T21:44:45.958Z,9.95
2024-05-09T21:49:51.516Z,9.83
2024-05-09T21:54:57.353Z,9.77
2024-05-09T22:00:05.666Z,9.66
2024-05-09T22:05:14.812Z,9.57
2024-05-09T22:10:26.246Z,9.46
2024-05-09T22:15:39.606Z,9.33
2024-05-09T22:20:46.728Z,9.25
2024-05-09T22:25:51.773Z,9.19
2024-05-09T22:30:58.486Z,9.13
2024-05-09T22:36:04.301Z,9.07
2024-05-09T22:41:10.307Z,9.06
2024-05-09T22:46:15.981Z,9.02
2024-05-09T22:51:21.817Z,8.94
2024-05-09T22:56:29.903Z,8.90
2024-05-09T23:01:35.514Z,8.84
2024-05-09T23:06:43.393Z,8.79
2024-05-09T23:11:49.191Z,8.77
2024-05-09T23:16:54.815Z,8.75
2024-05-09T23:22:00.561Z,8.71
2024-05-09T23:27:06.544Z,8.72
2024-05-09T23:32:13.058Z,8.71
2024-05-09T23:37:18.839Z,8.73
2024-05-09T23:42:24.737Z,8.76
2024-05-09T23:47:30.423Z,8.79
2024-05-09T23:52:36.137Z,8.82
2024-05-09T23:57:41.636Z,8.84
